Time;durP1;ratioP1;P1;durP2;ratioP2;P2;SDS_P1;SDS_P2;PMS_P1;PMS_P2;Temp;Humidity;BMP_temperature;BMP_pressure;BME280_temperature;BME280_humidity;BME280_pressure;Samples;Min_cycle;Max_cycle;Signal;HPM_P1;HPM_P2
2023/08/29 00:01:05;;;;;;;7.57;2.72;;;;;;;25.77;67.88;96429.91;5029345;28;20548;-74
2023/08/29 00:03:33;;;;;;;5.53;3.05;;;;;;;25.85;66.90;96426.91;5030223;28;20033;-76
2023/08/29 00:06:03;;;;;;;6.63;3.40;;;;;;;25.91;66.88;96428.78;5028897;28;20112;-74
2023/08/29 00:08:29;;;;;;;4.45;2.92;;;;;;;26.04;65.04;96420.50;5012455;28;20040;-74
2023/08/29 00:10:58;;;;;;;3.33;2.65;;;;;;;26.20;63.82;96416.44;5021484;28;20029;-73
2023/08/29 00:13:24;;;;;;;4.55;2.80;;;;;;;26.36;63.05;96424.16;5032224;28;20028;-74
2023/08/29 00:15:50;;;;;;;5.63;3.33;;;;;;;26.34;62.60;96416.13;5032144;28;20403;-75
2023/08/29 00:18:16;;;;;;;5.80;3.13;;;;;;;26.30;62.79;96425.84;5048774;28;20029;-75
2023/08/29 00:20:41;;;;;;;5.05;3.03;;;;;;;26.28;63.57;96418.91;5041311;28;20041;-75
2023/08/29 00:23:09;;;;;;;7.45;2.95;;;;;;;26.30;63.14;96420.38;5028709;28;20025;-74
2023/08/29 00:25:35;;;;;;;5.63;3.17;;;;;;;26.33;62.98;96419.09;5028246;28;20136;-75
2023/08/29 00:28:00;;;;;;;5.35;3.13;;;;;;;26.32;63.41;96417.41;5048408;28;20480;-74
2023/08/29 00:30:26;;;;;;;3.90;2.80;;;;;;;26.31;62.90;96412.97;5048513;28;20039;-75
2023/08/29 00:32:51;;;;;;;3.92;2.88;;;;;;;26.40;62.97;96414.41;5047996;28;20079;-75
2023/08/29 00:35:17;;;;;;;4.13;3.13;;;;;;;26.40;62.82;96415.25;5044916;28;20029;-75
2023/08/29 00:37:43;;;;;;;7.15;2.85;;;;;;;26.42;62.78;96410.38;5028587;28;20034;-76
2023/08/29 00:40:10;;;;;;;6.25;3.13;;;;;;;26.44;62.51;96412.91;5028390;28;20032;-75
2023/08/29 00:42:36;;;;;;;4.63;3.03;;;;;;;26.37;63.15;96421.19;5043989;28;20044;-75
2023/08/29 00:45:01;;;;;;;6.85;3.00;;;;;;;26.42;62.62;96412.28;5037433;28;20037;-75
2023/08/29 00:47:27;;;;;;;3.17;2.75;;;;;;;26.37;63.15;96414.84;5011867;28;20071;-75
2023/08/29 00:49:53;;;;;;;7.25;2.92;;;;;;;26.35;63.46;96411.50;5028170;28;20030;-74
2023/08/29 00:52:19;;;;;;;3.72;2.97;;;;;;;26.36;63.22;96408.50;5028225;28;20045;-75
2023/08/29 00:54:44;;;;;;;6.32;3.25;;;;;;;26.33;63.62;96417.19;5035106;28;20044;-74
2023/08/29 00:57:10;;;;;;;7.50;3.28;;;;;;;26.32;63.76;96412.78;5047961;28;20056;-74
2023/08/29 00:59:36;;;;;;;7.95;3.30;;;;;;;26.36;63.01;96416.75;5048296;28;20112;-75
2023/08/29 01:02:01;;;;;;;3.92;3.10;;;;;;;26.39;62.83;96416.28;5049027;28;20468;-74
2023/08/29 01:04:27;;;;;;;7.32;3.20;;;;;;;26.27;64.00;96414.50;5064669;28;20066;-74
2023/08/29 01:06:55;;;;;;;5.38;2.80;;;;;;;26.31;64.00;96415.72;5032902;28;20056;-74
2023/08/29 01:09:20;;;;;;;6.00;3.13;;;;;;;26.33;64.08;96413.63;5030751;28;20088;-74
2023/08/29 01:12:12;;;;;;;4.00;2.72;;;;;;;26.34;63.93;96407.91;5031483;28;20033;-76
2023/08/29 01:14:42;;;;;;;4.35;2.95;;;;;;;26.28;64.36;96411.53;5031186;28;20035;-75
2023/08/29 01:17:10;;;;;;;4.78;3.10;;;;;;;26.20;64.96;96409.06;5038306;28;20357;-74
2023/08/29 01:19:39;;;;;;;4.40;2.70;;;;;;;26.20;65.08;96408.22;5027862;28;20022;-75
2023/08/29 01:22:26;;;;;;;5.32;2.90;;;;;;;26.23;64.87;96408.63;5036683;28;20051;-74
2023/08/29 01:25:06;;;;;;;6.93;2.97;;;;;;;26.22;65.16;96406.94;5048909;28;20407;-75
2023/08/29 01:27:34;;;;;;;7.95;3.30;;;;;;;26.19;65.02;96387.34;5049007;28;20495;-75
2023/08/29 01:30:01;;;;;;;5.82;3.17;;;;;;;26.22;65.00;96395.97;5030876;28;20029;-75
2023/08/29 01:32:27;;;;;;;5.38;3.00;;;;;;;26.24;64.67;96391.09;5047450;28;20068;-74
2023/08/29 01:34:53;;;;;;;7.53;3.10;;;;;;;26.28;64.50;96388.75;5031011;28;20028;-74
2023/08/29 01:37:19;;;;;;;5.22;3.00;;;;;;;26.26;64.98;96397.22;5030779;28;20523;-73
2023/08/29 01:39:45;;;;;;;8.30;3.00;;;;;;;26.24;65.00;96399.31;5030907;28;20108;-74
2023/08/29 01:42:10;;;;;;;4.03;3.03;;;;;;;26.21;65.51;96393.47;5047281;28;20441;-74
2023/08/29 01:44:36;;;;;;;5.57;3.10;;;;;;;26.21;65.43;96387.97;5030839;28;20056;-74
2023/08/29 01:47:01;;;;;;;3.80;2.90;;;;;;;26.17;65.43;96393.06;5030553;28;20024;-75
2023/08/29 01:49:27;;;;;;;6.82;3.08;;;;;;;26.18;65.23;96383.75;5047050;28;20089;-75
2023/08/29 01:51:52;;;;;;;7.18;3.42;;;;;;;26.15;65.88;96391.53;5047188;28;20029;-75
2023/08/29 01:54:18;;;;;;;4.45;3.13;;;;;;;26.11;65.79;96387.56;5046873;28;20036;-74
2023/08/29 01:56:44;;;;;;;7.80;2.92;;;;;;;26.07;65.75;96381.69;5030691;28;20040;-73
2023/08/29 01:59:10;;;;;;;3.83;3.08;;;;;;;26.04;66.19;96384.03;5030268;28;20024;-74
2023/08/29 02:01:39;;;;;;;5.15;3.10;;;;;;;26.04;66.21;96386.75;5035480;28;20406;-74
2023/08/29 02:04:04;;;;;;;8.50;2.83;;;;;;;25.97;66.70;96386.78;5027106;28;20048;-75
2023/08/29 02:06:30;;;;;;;3.97;2.95;;;;;;;26.02;66.59;96389.75;5010714;28;20064;-75
2023/08/29 02:08:55;;;;;;;7.15;3.20;;;;;;;25.93;66.83;96385.56;5027021;28;20113;-74
2023/08/29 02:11:21;;;;;;;4.40;2.90;;;;;;;25.96;66.69;96387.88;5010486;28;20541;-74
2023/08/29 02:13:46;;;;;;;4.90;3.05;;;;;;;25.98;66.57;96393.13;5027166;28;20441;-75
2023/08/29 02:16:12;;;;;;;5.32;3.17;;;;;;;25.86;66.28;96379.28;5026976;28;20090;-75
2023/08/29 02:18:39;;;;;;;9.95;2.78;;;;;;;25.95;65.91;96377.97;5028229;28;20078;-77
2023/08/29 02:21:04;;;;;;;11.45;4.07;;;;;;;25.94;66.54;96380.91;5026986;28;20026;-78
2023/08/29 02:23:31;;;;;;;5.90;2.53;;;;;;;25.89;66.13;96378.84;5038627;28;20085;-79
2023/08/29 02:26:04;;;;;;;4.50;3.10;;;;;;;25.90;66.14;96374.22;5034908;28;20025;-78
2023/08/29 02:28:36;;;;;;;5.00;2.95;;;;;;;25.87;66.49;96376.31;5030142;28;20483;-78
2023/08/29 02:31:06;;;;;;;10.40;3.03;;;;;;;25.83;66.30;96374.25;5041521;28;20534;-78
2023/08/29 02:33:33;;;;;;;11.65;3.42;;;;;;;25.81;66.29;96382.66;5038817;28;20506;-79
2023/08/29 02:35:59;;;;;;;8.38;5.40;;;;;;;25.75;66.57;96378.06;5038511;28;20399;-78
2023/08/29 02:38:25;;;;;;;11.00;3.60;;;;;;;25.78;66.66;96380.34;5038070;28;20025;-75
2023/08/29 02:40:50;;;;;;;10.40;3.13;;;;;;;25.66;66.93;96373.03;5017534;28;20048;-76
2023/08/29 02:43:16;;;;;;;4.53;3.00;;;;;;;25.67;66.84;96377.47;5045315;28;20029;-76
2023/08/29 02:45:41;;;;;;;18.15;3.65;;;;;;;25.69;66.96;96378.94;5043715;28;20017;-75
2023/08/29 02:48:07;;;;;;;4.07;2.70;;;;;;;25.59;67.04;96367.63;5027903;28;20029;-75
2023/08/29 02:50:33;;;;;;;27.48;3.83;;;;;;;25.71;66.59;96384.19;5027639;28;20026;-75
2023/08/29 02:52:59;;;;;;;9.98;2.92;;;;;;;25.64;67.07;96391.59;5026687;28;20036;-78
2023/08/29 02:55:24;;;;;;;19.90;3.80;;;;;;;25.64;67.28;96384.22;5026404;28;20480;-77
2023/08/29 02:57:50;;;;;;;3.83;2.95;;;;;;;25.59;67.41;96367.63;5026774;28;20032;-78
2023/08/29 03:00:16;;;;;;;6.15;3.20;;;;;;;25.57;67.89;96368.88;5026420;28;20074;-77
2023/08/29 03:02:42;;;;;;;9.23;3.33;;;;;;;25.59;67.53;96381.31;5030328;28;20025;-78
2023/08/29 03:05:08;;;;;;;5.78;2.60;;;;;;;25.57;67.34;96357.91;5047761;28;20021;-76
2023/08/29 03:07:33;;;;;;;8.93;3.28;;;;;;;25.56;67.69;96375.41;5036820;28;20089;-75
2023/08/29 03:09:59;;;;;;;7.72;2.80;;;;;;;25.47;67.92;96366.56;5010012;28;20037;-75
2023/08/29 03:12:25;;;;;;;7.53;3.20;;;;;;;25.48;68.24;96361.91;5026430;28;20025;-75
2023/08/29 03:14:53;;;;;;;8.80;3.15;;;;;;;25.41;68.85;96341.97;5008068;28;20025;-75
2023/08/29 03:17:19;;;;;;;7.53;3.08;;;;;;;25.34;69.56;96361.16;5037631;28;20381;-75
2023/08/29 03:19:47;;;;;;;6.72;3.40;;;;;;;25.29;70.11;96367.25;5042971;28;20086;-76
2023/08/29 03:22:13;;;;;;;5.40;3.35;;;;;;;25.20;71.36;96354.88;5036061;28;20021;-75
2023/08/29 03:24:38;;;;;;;6.68;2.97;;;;;;;25.06;73.07;96366.91;5032986;28;20040;-76
2023/08/29 03:27:04;;;;;;;8.52;3.40;;;;;;;24.93;74.23;96360.63;5032576;28;20040;-75
2023/08/29 03:29:29;;;;;;;5.43;3.20;;;;;;;24.86;75.37;96368.81;5038938;28;20030;-77
2023/08/29 03:31:55;;;;;;;7.05;3.40;;;;;;;24.83;75.45;96376.63;5032505;28;20463;-75
2023/08/29 03:34:20;;;;;;;4.45;3.13;;;;;;;24.70;78.00;96374.72;5049148;28;20128;-75
2023/08/29 03:36:46;;;;;;;6.57;2.92;;;;;;;24.63;78.70;96384.81;5049591;28;20044;-75
2023/08/29 03:39:11;;;;;;;13.05;3.75;;;;;;;24.59;78.61;96380.81;5041365;28;20053;-76
2023/08/29 03:41:38;;;;;;;7.68;3.67;;;;;;;24.58;78.94;96373.69;5045417;28;20560;-76
2023/08/29 03:44:05;;;;;;;5.25;3.20;;;;;;;24.53;79.67;96371.56;5044063;28;20029;-75
2023/08/29 03:46:31;;;;;;;6.15;3.38;;;;;;;24.68;77.79;96374.94;5046189;28;20060;-75
2023/08/29 03:48:56;;;;;;;6.25;3.40;;;;;;;24.87;75.67;96366.94;5013135;28;20079;-75
2023/08/29 03:51:22;;;;;;;6.70;2.90;;;;;;;24.86;76.45;96363.34;5037731;28;20033;-76
2023/08/29 03:53:47;;;;;;;10.73;3.45;;;;;;;24.76;78.08;96371.16;5014779;28;20057;-75
2023/08/29 03:56:13;;;;;;;6.22;3.40;;;;;;;24.64;80.18;96383.78;5041283;28;20063;-75
2023/08/29 03:58:38;;;;;;;6.63;3.78;;;;;;;24.53;81.13;96381.66;5049431;28;20415;-75
2023/08/29 04:01:04;;;;;;;4.93;3.63;;;;;;;24.44;82.76;96388.38;5037148;28;20028;-75
2023/08/29 04:03:30;;;;;;;10.63;4.20;;;;;;;24.37;83.17;96387.53;5045206;28;20028;-76
2023/08/29 04:05:57;;;;;;;5.35;3.70;;;;;;;24.46;83.77;96402.69;5021724;28;20144;-75
2023/08/29 04:08:22;;;;;;;9.18;3.25;;;;;;;24.47;82.14;96394.28;5037464;28;20024;-76
2023/08/29 04:10:48;;;;;;;11.40;3.95;;;;;;;24.59;82.35;96398.06;5046969;28;20028;-75
2023/08/29 04:13:14;;;;;;;11.50;3.78;;;;;;;24.50;82.70;96382.06;5065768;28;20036;-75
2023/08/29 04:15:39;;;;;;;6.32;3.10;;;;;;;24.69;80.13;96389.44;5048871;28;20404;-76
2023/08/29 04:18:05;;;;;;;7.72;3.17;;;;;;;24.82;78.77;96380.44;5030725;28;20020;-75
2023/08/29 04:20:31;;;;;;;7.18;3.17;;;;;;;24.82;79.23;96386.75;5048857;28;20400;-74
2023/08/29 04:22:58;;;;;;;6.28;2.80;;;;;;;24.90;78.71;96378.31;5047815;28;20116;-77
2023/08/29 04:25:26;;;;;;;10.85;3.42;;;;;;;24.85;79.11;96380.00;5028889;28;20128;-78
2023/08/29 04:27:52;;;;;;;11.43;3.65;;;;;;;24.87;80.26;96384.19;5028682;28;20044;-75
2023/08/29 04:30:18;;;;;;;21.27;5.50;;;;;;;24.79;81.96;96387.13;5032330;28;20025;-76
2023/08/29 04:32:43;;;;;;;11.32;3.70;;;;;;;24.68;83.09;96376.81;5047856;28;20053;-76
2023/08/29 04:35:10;;;;;;;9.13;3.80;;;;;;;24.55;85.72;96376.84;5048221;28;20025;-76
2023/08/29 04:37:36;;;;;;;21.58;4.78;;;;;;;24.48;87.83;96385.03;5049719;28;20449;-76
2023/08/29 04:40:06;;;;;;;15.38;4.07;;;;;;;24.42;87.72;96379.56;5031584;28;20108;-76
2023/08/29 04:42:32;;;;;;;22.30;5.80;;;;;;;24.23;88.96;96375.75;5049238;28;20041;-76
2023/08/29 04:44:58;;;;;;;10.82;4.40;;;;;;;24.25;89.48;96374.50;5047566;28;20046;-76
2023/08/29 04:47:23;;;;;;;16.92;4.32;;;;;;;24.31;88.58;96371.97;5048046;28;20021;-76
2023/08/29 04:49:49;;;;;;;8.68;3.92;;;;;;;24.38;89.12;96378.28;5049130;28;20025;-75
2023/08/29 04:52:14;;;;;;;18.73;5.93;;;;;;;24.42;90.05;96371.38;5047841;28;20059;-76
2023/08/29 04:54:40;;;;;;;11.70;4.97;;;;;;;24.44;90.47;96366.53;5048135;28;20033;-76
2023/08/29 04:57:05;;;;;;;20.27;5.32;;;;;;;24.54;90.52;96366.94;5047710;28;20025;-76
2023/08/29 04:59:31;;;;;;;17.00;4.68;;;;;;;24.70;89.85;96363.78;5049688;28;20017;-76
2023/08/29 05:01:56;;;;;;;13.32;3.97;;;;;;;24.59;90.60;96358.94;5039762;28;20041;-76
2023/08/29 05:04:22;;;;;;;10.15;4.68;;;;;;;24.59;90.73;96364.41;5028071;28;20025;-76
2023/08/29 05:06:48;;;;;;;26.42;7.03;;;;;;;24.68;91.16;96357.66;5011694;28;20353;-76
2023/08/29 05:09:13;;;;;;;28.45;7.82;;;;;;;24.63;92.36;96349.28;5028673;28;20093;-73
2023/08/29 05:11:39;;;;;;;9.68;4.75;;;;;;;24.77;92.16;96350.91;5029402;28;20040;-77
2023/08/29 05:14:04;;;;;;;10.82;5.05;;;;;;;24.91;92.83;96363.56;5027952;28;20052;-77
2023/08/29 05:16:32;;;;;;;20.48;4.63;;;;;;;25.04;92.56;96360.78;5033032;28;20036;-75
2023/08/29 05:18:58;;;;;;;8.23;3.85;;;;;;;25.08;92.02;96362.06;5040130;28;20025;-75
2023/08/29 05:21:24;;;;;;;7.07;3.50;;;;;;;25.01;90.53;96353.00;5036197;28;20025;-75
2023/08/29 05:23:49;;;;;;;10.73;3.35;;;;;;;25.04;89.65;96360.78;5036876;28;20407;-75
2023/08/29 05:26:15;;;;;;;22.85;3.67;;;;;;;25.08;87.54;96353.00;5047347;28;20036;-75
2023/08/29 05:28:41;;;;;;;8.02;3.83;;;;;;;25.16;86.96;96359.06;5034114;28;20025;-75
2023/08/29 05:31:06;;;;;;;11.52;4.38;;;;;;;25.25;87.91;96346.88;5027321;28;20412;-72
2023/08/29 05:33:32;;;;;;;9.57;4.00;;;;;;;25.99;84.39;96340.00;5028854;28;20033;-75
2023/08/29 05:35:57;;;;;;;11.52;3.60;;;;;;;27.59;72.71;96320.81;5027620;28;20026;-73
2023/08/29 05:38:25;;;;;;;18.20;5.35;;;;;;;29.00;64.85;96319.88;5029817;28;20499;-73
2023/08/29 05:40:54;;;;;;;21.90;6.32;;;;;;;30.64;53.97;96305.25;5049688;28;20029;-73
2023/08/29 05:43:20;;;;;;;8.60;3.65;;;;;;;31.79;49.78;96303.63;5027400;28;20503;-74
2023/08/29 05:45:45;;;;;;;17.15;4.03;;;;;;;32.83;46.36;96290.28;5027527;28;20029;-74
2023/08/29 05:48:11;;;;;;;22.48;5.55;;;;;;;33.24;45.12;96287.56;5046699;28;20420;-74
2023/08/29 05:50:40;;;;;;;15.75;4.40;;;;;;;33.88;43.62;96289.25;5030482;28;20037;-74
2023/08/29 05:53:06;;;;;;;24.15;10.18;;;;;;;34.73;41.70;96283.88;5047568;28;20531;-74
2023/08/29 05:55:32;;;;;;;30.08;7.00;;;;;;;35.36;39.84;96278.81;5044508;28;20029;-82
2023/08/29 05:57:59;;;;;;;28.48;5.28;;;;;;;35.22;39.21;96283.31;5028057;28;20456;-81
2023/08/29 06:00:25;;;;;;;12.43;3.72;;;;;;;35.80;38.68;96274.25;5026088;28;20081;-81
2023/08/29 06:02:52;;;;;;;17.85;4.72;;;;;;;35.75;39.04;96265.06;5043994;28;20155;-82
2023/08/29 06:05:17;;;;;;;22.40;5.65;;;;;;;36.28;37.95;96272.59;5037785;28;20028;-82
2023/08/29 06:07:43;;;;;;;9.18;3.88;;;;;;;37.41;35.57;96262.97;5036639;28;20029;-81
2023/08/29 06:10:09;;;;;;;17.92;6.95;;;;;;;37.70;35.16;96261.00;5044953;28;20029;-81
2023/08/29 06:12:34;;;;;;;10.10;5.18;;;;;;;37.28;35.52;96264.53;5043908;28;20416;-80
2023/08/29 06:15:00;;;;;;;9.43;3.95;;;;;;;38.24;34.09;96266.13;5043906;28;20039;-82
2023/08/29 06:17:26;;;;;;;12.35;4.47;;;;;;;38.59;33.57;96262.00;5043459;28;20059;-81
2023/08/29 06:19:51;;;;;;;7.97;3.38;;;;;;;38.57;33.91;96269.03;5033407;28;20036;-81
2023/08/29 06:22:17;;;;;;;13.00;7.53;;;;;;;38.48;33.54;96269.72;5024756;28;20108;-81
2023/08/29 06:24:42;;;;;;;18.45;9.50;;;;;;;39.16;32.89;96263.56;5023507;28;20030;-83
2023/08/29 06:27:08;;;;;;;10.45;4.10;;;;;;;39.41;31.96;96265.09;5036471;28;20039;-82
2023/08/29 06:29:33;;;;;;;7.88;4.97;;;;;;;38.96;32.46;96256.34;5043510;28;20025;-82
2023/08/29 06:31:59;;;;;;;13.65;4.95;;;;;;;39.48;32.37;96266.31;5044020;28;20112;-82
2023/08/29 06:34:24;;;;;;;11.98;4.40;;;;;;;38.49;33.40;96264.94;5044258;28;20117;-83
2023/08/29 06:36:50;;;;;;;20.48;5.75;;;;;;;38.24;34.03;96270.91;5039720;28;20527;-82
2023/08/29 06:39:16;;;;;;;9.88;4.32;;;;;;;38.41;33.28;96280.44;5030778;28;20188;-74
2023/08/29 06:41:41;;;;;;;7.45;3.53;;;;;;;38.09;33.90;96279.47;5032104;28;20029;-74
2023/08/29 06:44:07;;;;;;;6.28;3.90;;;;;;;38.27;34.05;96289.88;5024691;28;20036;-74
2023/08/29 06:46:33;;;;;;;10.82;3.60;;;;;;;39.14;32.30;96278.97;5023151;28;20528;-75
2023/08/29 06:48:59;;;;;;;6.45;3.80;;;;;;;39.39;32.38;96276.56;5023383;28;20468;-74
2023/08/29 06:51:24;;;;;;;5.50;3.83;;;;;;;39.93;31.72;96270.16;5032891;28;20409;-75
2023/08/29 06:53:50;;;;;;;9.55;4.10;;;;;;;40.55;30.91;96281.72;5042692;28;20025;-75
2023/08/29 06:56:15;;;;;;;9.63;3.90;;;;;;;40.42;30.50;96272.19;5043191;28;20151;-75
2023/08/29 06:58:41;;;;;;;6.15;3.63;;;;;;;40.52;30.54;96277.56;5042542;28;20171;-74
2023/08/29 07:01:07;;;;;;;12.38;3.78;;;;;;;39.87;30.33;96263.00;5043358;28;20088;-75
2023/08/29 07:03:32;;;;;;;9.77;3.92;;;;;;;38.77;31.88;96260.28;5042819;28;20036;-74
2023/08/29 07:05:58;;;;;;;8.65;4.20;;;;;;;37.92;32.48;96264.09;5023115;28;20036;-76
2023/08/29 07:08:23;;;;;;;5.07;3.65;;;;;;;35.84;34.60;96261.38;5030372;28;20425;-78
2023/08/29 07:10:49;;;;;;;5.47;4.28;;;;;;;35.65;35.53;96279.03;5006416;28;20025;-77
2023/08/29 07:13:14;;;;;;;5.80;4.15;;;;;;;36.62;34.77;96283.78;5037209;28;20068;-77
2023/08/29 07:15:40;;;;;;;6.18;3.90;;;;;;;37.00;33.92;96282.13;5019957;28;20144;-77
2023/08/29 07:18:06;;;;;;;6.28;3.40;;;;;;;37.02;34.10;96284.59;5019259;28;20028;-76
2023/08/29 07:20:32;;;;;;;9.38;3.80;;;;;;;36.67;33.96;96278.16;5042696;28;20563;-76
2023/08/29 07:22:58;;;;;;;7.53;4.30;;;;;;;37.10;33.83;96293.16;5025998;28;20112;-76
2023/08/29 07:25:42;;;;;;;5.30;3.80;;;;;;;36.62;34.19;96280.16;5042836;28;20119;-75
2023/08/29 07:28:09;;;;;;;7.75;3.67;;;;;;;36.15;34.89;96294.66;5108590;28;20488;-74
2023/08/29 07:30:40;;;;;;;8.13;4.13;;;;;;;35.27;35.65;96288.84;5028144;28;20040;-74
2023/08/29 07:33:06;;;;;;;14.00;4.67;;;;;;;35.95;35.40;96306.72;5034938;28;20053;-76
2023/08/29 07:35:31;;;;;;;6.43;4.00;;;;;;;35.44;35.43;96294.09;5017015;28;20051;-71
2023/08/29 07:37:57;;;;;;;5.95;4.35;;;;;;;35.88;35.16;96304.25;5022378;28;20381;-72
2023/08/29 07:40:22;;;;;;;7.72;4.30;;;;;;;35.57;35.43;96297.13;5022418;28;20135;-71
2023/08/29 07:42:48;;;;;;;10.15;4.10;;;;;;;35.23;36.15;96294.16;5023782;28;20434;-72
2023/08/29 07:45:13;;;;;;;6.72;4.13;;;;;;;34.80;36.56;96311.41;5027947;28;20028;-71
2023/08/29 07:47:39;;;;;;;7.47;4.10;;;;;;;34.33;37.24;96314.41;5051450;28;20479;-74
2023/08/29 07:50:05;;;;;;;5.00;3.78;;;;;;;34.64;37.05;96296.66;5042941;28;20397;-74
2023/08/29 07:52:30;;;;;;;14.35;4.28;;;;;;;35.06;35.99;96290.81;5042589;28;20094;-75
2023/08/29 07:54:58;;;;;;;7.93;3.95;;;;;;;35.24;35.79;96300.53;5032306;28;20029;-74
2023/08/29 07:57:23;;;;;;;8.50;4.20;;;;;;;35.11;36.08;96295.56;5022033;28;20044;-74
2023/08/29 07:59:49;;;;;;;11.15;4.22;;;;;;;35.84;35.60;96299.53;5039085;27;20508;-75
2023/08/29 08:02:15;;;;;;;7.13;4.45;;;;;;;36.85;34.11;96307.31;5022288;28;20488;-72
2023/08/29 08:04:40;;;;;;;5.78;4.03;;;;;;;36.02;34.56;96289.72;5023882;28;20029;-73
2023/08/29 08:07:06;;;;;;;7.72;3.65;;;;;;;36.30;34.26;96295.41;5022122;28;20090;-72
2023/08/29 08:09:31;;;;;;;6.15;3.95;;;;;;;36.42;34.49;96297.88;5005225;28;20026;-73
2023/08/29 08:11:57;;;;;;;11.98;4.50;;;;;;;37.53;32.68;96291.34;5038733;27;20094;-74
2023/08/29 08:14:22;;;;;;;8.05;4.50;;;;;;;37.71;32.75;96307.34;5022425;28;20040;-74
2023/08/29 08:16:48;;;;;;;9.68;4.72;;;;;;;38.31;31.91;96294.53;5022469;28;20039;-75
2023/08/29 08:19:13;;;;;;;6.97;4.60;;;;;;;38.07;32.01;96295.72;5025328;28;20029;-73
2023/08/29 08:21:39;;;;;;;8.18;4.38;;;;;;;38.19;31.82;96301.69;5026543;28;20059;-72
2023/08/29 08:24:07;;;;;;;8.63;4.40;;;;;;;38.18;31.82;96289.69;5026496;28;20022;-74
2023/08/29 08:26:32;;;;;;;6.45;4.53;;;;;;;37.01;32.90;96291.31;5009099;28;20044;-73
2023/08/29 08:28:59;;;;;;;8.70;4.68;;;;;;;35.92;34.40;96295.34;5025122;28;20026;-73
2023/08/29 08:31:25;;;;;;;8.48;4.80;;;;;;;34.95;35.24;96296.69;5025345;28;20029;-72
2023/08/29 08:33:51;;;;;;;9.88;4.40;;;;;;;34.18;36.09;96289.34;5008695;28;20400;-73
2023/08/29 08:36:16;;;;;;;6.70;4.07;;;;;;;33.50;37.42;96307.13;5025122;28;20109;-73
2023/08/29 08:38:42;;;;;;;6.93;4.75;;;;;;;33.18;38.26;96315.53;5025152;28;20481;-72
2023/08/29 08:41:10;;;;;;;8.40;4.50;;;;;;;32.90;38.20;96307.53;5037424;28;20037;-72
2023/08/29 08:43:37;;;;;;;12.85;4.43;;;;;;;32.72;38.64;96317.94;5028910;28;20441;-73
2023/08/29 08:46:03;;;;;;;17.35;5.35;;;;;;;32.61;38.86;96310.63;5044457;28;20021;-73
2023/08/29 08:48:29;;;;;;;12.68;4.72;;;;;;;32.31;39.55;96303.94;5046270;28;20029;-72
2023/08/29 08:50:55;;;;;;;16.73;5.25;;;;;;;32.32;39.28;96300.91;5041352;28;20049;-72
2023/08/29 08:53:21;;;;;;;13.65;4.70;;;;;;;32.36;39.50;96291.00;5044905;28;20076;-72
2023/08/29 08:55:49;;;;;;;12.45;4.47;;;;;;;33.52;37.76;96283.53;5028153;28;20035;-72
2023/08/29 08:58:14;;;;;;;6.78;4.55;;;;;;;35.18;35.64;96288.59;5026406;28;20488;-71
2023/08/29 09:00:40;;;;;;;15.70;4.78;;;;;;;36.99;33.21;96280.44;5008436;28;20040;-71
2023/08/29 09:03:05;;;;;;;11.30;4.60;;;;;;;37.66;32.49;96287.81;5024700;28;20029;-71
2023/08/29 09:05:31;;;;;;;7.60;4.40;;;;;;;38.14;31.35;96285.84;5024998;28;20106;-71
2023/08/29 09:07:56;;;;;;;9.32;4.35;;;;;;;39.03;30.81;96279.19;5025705;28;20033;-71
2023/08/29 09:10:23;;;;;;;8.88;4.03;;;;;;;39.48;30.19;96273.88;5024222;28;20412;-72
2023/08/29 09:12:50;;;;;;;6.88;4.13;;;;;;;39.87;29.53;96277.03;5008614;28;20042;-72
2023/08/29 09:15:16;;;;;;;5.03;4.38;;;;;;;40.25;29.26;96276.78;5024683;28;20112;-72
2023/08/29 09:17:49;;;;;;;6.72;4.28;;;;;;;40.45;28.87;96270.72;5024367;28;20476;-71
2023/08/29 09:20:16;;;;;;;4.70;4.05;;;;;;;41.00;28.25;96263.78;5008128;28;20037;-71
2023/08/29 09:22:45;;;;;;;14.48;5.03;;;;;;;41.09;28.30;96264.69;5024472;28;20476;-72
2023/08/29 09:25:11;;;;;;;8.57;4.50;;;;;;;40.87;28.42;96261.84;5024604;28;20044;-71
2023/08/29 09:27:40;;;;;;;8.15;4.57;;;;;;;39.65;28.93;96246.09;5025962;28;20032;-71
2023/08/29 09:30:13;;;;;;;5.78;4.10;;;;;;;39.22;30.19;96242.72;5023439;28;20391;-72
2023/08/29 09:32:41;;;;;;;10.10;4.32;;;;;;;38.56;30.51;96254.22;5038383;28;20475;-72
2023/08/29 09:35:08;;;;;;;8.93;4.20;;;;;;;38.44;30.73;96251.88;5060692;28;20080;-71
2023/08/29 09:37:39;;;;;;;6.13;4.45;;;;;;;40.06;28.67;96262.88;5043811;28;20456;-72
2023/08/29 09:40:06;;;;;;;9.70;4.25;;;;;;;40.57;28.57;96262.63;5027897;28;20090;-71
2023/08/29 09:42:32;;;;;;;7.75;4.43;;;;;;;41.62;27.56;96258.22;5044333;28;20036;-71
2023/08/29 09:44:57;;;;;;;4.95;4.38;;;;;;;41.42;27.11;96261.56;5041374;28;20036;-71
2023/08/29 09:47:24;;;;;;;9.30;4.40;;;;;;;40.89;27.59;96255.91;5045142;28;20085;-71
2023/08/29 09:49:49;;;;;;;6.93;4.30;;;;;;;40.44;28.47;96269.91;5036796;28;20382;-71
2023/08/29 09:52:16;;;;;;;5.18;4.38;;;;;;;40.26;28.63;96264.44;5040046;28;20037;-71
2023/08/29 09:54:52;;;;;;;5.63;4.30;;;;;;;39.55;29.28;96255.53;5043741;28;20508;-71
2023/08/29 09:57:19;;;;;;;7.28;4.30;;;;;;;38.55;30.18;96271.31;5052527;27;20074;-72
2023/08/29 09:59:46;;;;;;;9.35;4.55;;;;;;;38.08;30.68;96267.50;5021593;28;20453;-72
2023/08/29 10:02:12;;;;;;;10.15;4.70;;;;;;;38.07;30.83;96276.16;5008111;28;20040;-72
2023/08/29 10:04:55;;;;;;;7.95;4.40;;;;;;;38.34;30.88;96285.53;5027683;28;20040;-72
2023/08/29 10:07:26;;;;;;;7.25;4.70;;;;;;;38.74;29.78;96270.13;5026755;28;20148;-72
2023/08/29 10:09:52;;;;;;;7.10;4.45;;;;;;;38.60;30.12;96280.44;5033213;28;20029;-72
2023/08/29 10:12:18;;;;;;;7.55;4.65;;;;;;;38.60;30.03;96280.44;5029835;28;20037;-72
2023/08/29 10:14:44;;;;;;;7.80;4.60;;;;;;;39.08;29.66;96266.22;5047066;28;20515;-72
2023/08/29 10:17:10;;;;;;;9.02;4.40;;;;;;;39.83;29.32;96263.97;5047655;28;20049;-70
2023/08/29 10:19:36;;;;;;;5.25;4.13;;;;;;;40.10;28.81;96257.50;5046030;28;20435;-71
2023/08/29 10:22:02;;;;;;;8.95;4.40;;;;;;;40.55;28.18;96267.69;5046276;28;20037;-71
2023/08/29 10:24:28;;;;;;;7.30;4.45;;;;;;;41.02;27.70;96257.84;5046871;28;20476;-71
2023/08/29 10:26:54;;;;;;;7.05;4.28;;;;;;;41.84;26.75;96266.56;5046111;28;20491;-71
2023/08/29 10:29:19;;;;;;;9.55;4.22;;;;;;;41.49;26.70;96253.50;5029525;28;20036;-71
2023/08/29 10:31:46;;;;;;;9.90;4.45;;;;;;;41.84;27.04;96262.94;5047221;28;20025;-71
2023/08/29 10:34:12;;;;;;;5.50;3.78;;;;;;;42.12;26.08;96258.69;5029227;28;20045;-70
2023/08/29 10:36:38;;;;;;;6.53;4.55;;;;;;;41.72;26.27;96260.69;5046151;28;20061;-71
2023/08/29 10:39:06;;;;;;;8.32;4.43;;;;;;;41.48;27.02;96252.69;5045769;28;20041;-71
2023/08/29 10:41:52;;;;;;;9.65;4.50;;;;;;;41.83;26.51;96250.88;5044361;28;20029;-71
2023/08/29 10:44:36;;;;;;;5.68;4.05;;;;;;;42.66;25.91;96248.88;5020042;28;20048;-72
2023/08/29 10:47:31;;;;;;;10.48;4.47;;;;;;;42.25;26.06;96254.94;5009999;28;20038;-70
2023/08/29 10:49:58;;;;;;;6.80;5.10;;;;;;;41.31;26.29;96240.50;5025800;28;20029;-72
2023/08/29 10:52:24;;;;;;;15.27;5.15;;;;;;;41.03;27.12;96237.06;5026198;28;20057;-72
2023/08/29 10:55:09;;;;;;;11.45;4.90;;;;;;;41.24;26.47;96231.72;5039113;28;20060;-72
2023/08/29 10:57:34;;;;;;;6.90;5.07;;;;;;;40.92;26.58;96233.66;5045711;28;20025;-72
2023/08/29 11:00:00;;;;;;;10.25;4.95;;;;;;;40.79;27.01;96220.53;5045469;28;20036;-72
2023/08/29 11:02:27;;;;;;;6.55;4.50;;;;;;;40.36;27.57;96230.56;5046660;28;20059;-71
2023/08/29 11:05:19;;;;;;;5.72;4.75;;;;;;;40.28;28.35;96220.91;5045456;28;20081;-71
2023/08/29 11:07:45;;;;;;;6.50;4.72;;;;;;;39.40;29.03;96224.22;5044030;28;20045;-71
2023/08/29 11:10:11;;;;;;;6.15;4.78;;;;;;;38.50;29.75;96221.88;5028764;28;20040;-71
2023/08/29 11:12:36;;;;;;;7.75;4.72;;;;;;;37.74;30.49;96219.34;5045534;28;20028;-71
2023/08/29 11:15:02;;;;;;;6.78;4.25;;;;;;;37.20;31.10;96223.31;5045240;28;20179;-72
2023/08/29 11:17:28;;;;;;;7.22;4.20;;;;;;;36.66;31.93;96223.56;5031796;28;20032;-72
2023/08/29 11:19:54;;;;;;;7.07;4.47;;;;;;;36.34;32.30;96217.66;5026815;28;20404;-72
2023/08/29 11:22:22;;;;;;;6.05;4.25;;;;;;;36.46;32.82;96220.91;5025610;28;20034;-72
2023/08/29 11:24:54;;;;;;;6.53;4.03;;;;;;;36.64;32.20;96214.63;5009432;28;20029;-72
2023/08/29 11:27:21;;;;;;;16.13;4.68;;;;;;;37.25;31.70;96220.47;5030815;28;20452;-71
2023/08/29 11:29:47;;;;;;;4.97;4.40;;;;;;;37.58;30.98;96204.75;5046427;28;20025;-71